createdAt,value
2019-01-19T00:00:36.465Z,101913.74
2019-01-19T00:03:28.230Z,101919.89
2019-01-19T00:06:26.591Z,101913.74
2019-01-19T00:09:13.298Z,101917.89
2019-01-19T00:12:12.624Z,101911.27
2019-01-19T00:15:05.718Z,101915.64
2019-01-19T00:18:33.854Z,101914.83
2019-01-19T00:21:30.805Z,101914.95
2019-01-19T00:24:12.742Z,101922.52
2019-01-19T00:27:22.313Z,101919.20
2019-01-19T00:30:14.224Z,101914.73
2019-01-19T00:33:32.090Z,101914.83
2019-01-19T00:36:24.303Z,101916.72
2019-01-19T00:39:30.271Z,101917.17
2019-01-19T00:42:44.554Z,101912.48
2019-01-19T00:45:41.281Z,101913.23
2019-01-19T00:48:36.393Z,101907.75
2019-01-19T00:51:47.102Z,101912.03
2019-01-19T00:54:23.970Z,101915.23
2019-01-19T00:57:24.027Z,101914.28
2019-01-19T00:59:57.799Z,101912.75
2019-01-19T01:02:51.828Z,101917.34
2019-01-19T01:05:38.515Z,101915.00
2019-01-19T01:08:49.850Z,101917.50
2019-01-19T01:11:50.304Z,101918.09
2019-01-19T01:14:54.768Z,101919.89
2019-01-19T01:17:40.551Z,101923.30
2019-01-19T01:20:48.304Z,101925.66
2019-01-19T01:23:50.348Z,101922.02
2019-01-19T01:27:24.594Z,101920.25
2019-01-19T01:30:49.113Z,101919.17
2019-01-19T01:33:40.376Z,101919.77
2019-01-19T01:36:29.126Z,101923.19
2019-01-19T01:39:57.051Z,101926.95
2019-01-19T01:42:53.214Z,101922.84
2019-01-19T01:45:38.541Z,101919.77
2019-01-19T01:48:45.006Z,101922.70
2019-01-19T01:51:35.974Z,101924.61
2019-01-19T01:54:36.813Z,101911.63
2019-01-19T01:57:22.611Z,101914.34
2019-01-19T02:00:31.803Z,101914.69
2019-01-19T02:03:43.582Z,101917.85
2019-01-19T02:06:55.702Z,101915.02
2019-01-19T02:09:51.747Z,101912.78
2019-01-19T02:12:51.969Z,101914.20
2019-01-19T02:15:40.529Z,101912.67
2019-01-19T02:18:19.213Z,101916.22
2019-01-19T02:21:24.768Z,101912.91
2019-01-19T02:24:29.962Z,101916.92
2019-01-19T02:27:23.631Z,101915.05
2019-01-19T02:30:34.112Z,101913.62
2019-01-19T02:33:30.139Z,101917.04
2019-01-19T02:36:15.625Z,101913.38
2019-01-19T02:38:55.100Z,101914.92
2019-01-19T02:42:11.168Z,101911.97
2019-01-19T02:45:08.282Z,101917.41
2019-01-19T02:48:04.105Z,101915.41
2019-01-19T02:50:50.799Z,101905.30
2019-01-19T02:53:46.985Z,101911.31
2019-01-19T02:56:39.923Z,101908.34
2019-01-19T03:00:01.686Z,101910.22
2019-01-19T03:02:54.170Z,101906.17
2019-01-19T03:05:36.246Z,101904.05
2019-01-19T03:09:04.313Z,101905.27
2019-01-19T03:12:14.020Z,101898.98
2019-01-19T03:15:16.140Z,101906.67
2019-01-19T03:18:37.899Z,101908.82
2019-01-19T03:21:42.512Z,101901.13
2019-01-19T03:24:38.475Z,101905.52
2019-01-19T03:27:52.787Z,101901.88
2019-01-19T03:31:01.349Z,101905.17
2019-01-19T03:34:05.563Z,101899.73
2019-01-19T03:37:03.676Z,101903.27
2019-01-19T03:39:57.914Z,101904.57
2019-01-19T03:43:17.335Z,101905.03
2019-01-19T03:46:20.024Z,101906.45
2019-01-19T03:49:38.798Z,101901.05
2019-01-19T03:52:30.473Z,101904.00
2019-01-19T03:55:16.853Z,101906.47
2019-01-19T03:58:10.929Z,101902.56
2019-01-19T04:00:59.777Z,101907.53
2019-01-19T04:03:47.502Z,101906.48
2019-01-19T04:06:52.956Z,101902.48
2019-01-19T04:10:05.663Z,101905.09
2019-01-19T04:13:14.170Z,101907.07
2019-01-19T04:16:23.269Z,101902.72
2019-01-19T04:19:01.129Z,101900.23
2019-01-19T04:22:02.330Z,101892.32
2019-01-19T04:24:59.753Z,101895.73
2019-01-19T04:27:28.707Z,101893.49
2019-01-19T04:29:57.651Z,101899.05
2019-01-19T04:32:26.726Z,101893.97
2019-01-19T04:34:55.691Z,101897.41
2019-01-19T04:37:24.541Z,101891.16
2019-01-19T04:39:53.370Z,101895.76
2019-01-19T04:42:22.404Z,101895.17
2019-01-19T04:44:51.267Z,101895.17
2019-01-19T04:47:20.225Z,101887.62
2019-01-19T04:49:49.120Z,101893.16
2019-01-19T04:52:17.922Z,101888.44
2019-01-19T04:54:48.405Z,101893.88
2019-01-19T04:57:17.286Z,101890.22
2019-01-19T04:59:46.173Z,101899.42
2019-01-19T05:02:15.015Z,101896.93
2019-01-19T05:04:43.883Z,101897.28
2019-01-19T05:07:12.652Z,101900.94
2019-01-19T05:09:41.536Z,101894.33
2019-01-19T05:12:10.413Z,101891.14
2019-01-19T05:14:39.282Z,101896.23
2019-01-19T05:17:08.062Z,101896.34
2019-01-19T05:19:37.006Z,101891.64
2019-01-19T05:22:05.860Z,101891.66
2019-01-19T05:24:34.810Z,101893.77
2019-01-19T05:27:03.708Z,101887.87
2019-01-19T05:29:32.557Z,101883.14
2019-01-19T05:32:01.488Z,101885.39
2019-01-19T05:34:30.375Z,101881.13
2019-01-19T05:36:59.221Z,101885.98
2019-01-19T05:39:28.085Z,101883.73
2019-01-19T05:41:56.956Z,101884.66
2019-01-19T05:44:25.727Z,101881.23
2019-01-19T05:46:54.601Z,101887.86
2019-01-19T05:49:23.526Z,101888.08
2019-01-19T05:51:52.582Z,101889.98
2019-01-19T05:54:21.510Z,101887.83
2019-01-19T05:56:50.479Z,101884.69
2019-01-19T05:59:19.355Z,101886.80
2019-01-19T06:01:48.198Z,101882.20
2019-01-19T06:04:17.122Z,101889.39
2019-01-19T06:06:46.994Z,101882.90
2019-01-19T06:09:16.196Z,101890.09
2019-01-19T06:11:45.063Z,101876.52
2019-01-19T06:14:14.029Z,101885.50
2019-01-19T06:16:43.000Z,101884.06
2019-01-19T06:19:12.274Z,101884.08
2019-01-19T06:22:00.161Z,101887.73
2019-01-19T06:24:29.049Z,101889.97
2019-01-19T06:26:57.966Z,101887.03
2019-01-19T06:29:26.870Z,101889.50
2019-01-19T06:31:55.826Z,101888.92
2019-01-19T06:34:24.619Z,101892.35
2019-01-19T06:36:55.002Z,101888.69
2019-01-19T06:39:24.145Z,101885.15
2019-01-19T06:41:53.030Z,101885.52
2019-01-19T06:44:21.944Z,101892.45
2019-01-19T06:46:50.850Z,101895.17
2019-01-19T06:49:19.708Z,101890.94
2019-01-19T06:51:48.590Z,101892.69
2019-01-19T06:54:17.772Z,101894.47
2019-01-19T06:56:46.532Z,101898.82
2019-01-19T06:59:17.449Z,101900.24
2019-01-19T07:01:46.072Z,101903.91
2019-01-19T07:04:14.914Z,101901.89
2019-01-19T07:06:43.827Z,101899.41
2019-01-19T07:09:12.747Z,101900.86
2019-01-19T07:11:41.677Z,101907.92
2019-01-19T07:14:10.625Z,101907.91
2019-01-19T07:16:39.469Z,101911.45
2019-01-19T07:19:08.473Z,101916.64
2019-01-19T07:21:37.350Z,101916.88
2019-01-19T07:24:06.266Z,101914.04
2019-01-19T07:26:35.226Z,101918.41
2019-01-19T07:29:04.198Z,101914.64
2019-01-19T07:31:33.194Z,101912.72
2019-01-19T07:34:02.186Z,101918.62
2019-01-19T07:36:31.090Z,101921.45
2019-01-19T07:39:00.102Z,101920.27
2019-01-19T07:41:29.026Z,101928.64
2019-01-19T07:43:57.912Z,101926.88
2019-01-19T07:46:27.385Z,101927.78
2019-01-19T07:48:56.312Z,101933.78
2019-01-19T07:51:25.752Z,101934.02
2019-01-19T07:53:54.645Z,101933.90
2019-01-19T07:56:24.891Z,101936.61
2019-01-19T07:58:53.778Z,101936.02
2019-01-19T08:01:22.694Z,101929.34
2019-01-19T08:03:51.662Z,101936.92
2019-01-19T08:06:20.534Z,101936.19
2019-01-19T08:08:49.335Z,101939.80
2019-01-19T08:11:18.280Z,101934.64
2019-01-19T08:13:47.128Z,101939.60
2019-01-19T08:16:15.998Z,101937.59
2019-01-19T08:18:44.927Z,101942.19
2019-01-19T08:21:13.819Z,101945.92
2019-01-19T08:23:42.724Z,101946.16
2019-01-19T08:26:11.640Z,101946.51
2019-01-19T08:28:40.538Z,101946.38
2019-01-19T08:31:09.386Z,101944.66
2019-01-19T08:33:38.275Z,101937.83
2019-01-19T08:36:07.198Z,101945.02
2019-01-19T08:38:36.152Z,101938.89
2019-01-19T08:41:05.200Z,101940.55
2019-01-19T08:43:54.920Z,101947.18
2019-01-19T08:46:23.851Z,101945.88
2019-01-19T08:48:52.833Z,101949.06
2019-01-19T08:51:21.710Z,101953.90
2019-01-19T08:53:50.718Z,101960.15
2019-01-19T08:56:19.694Z,101955.81
2019-01-19T08:58:48.675Z,101960.41
2019-01-19T09:01:17.590Z,101960.41
2019-01-19T09:03:46.403Z,101965.13
2019-01-19T09:06:15.393Z,101965.03
2019-01-19T09:08:44.254Z,101968.06
2019-01-19T09:11:13.243Z,101968.55
2019-01-19T09:13:42.136Z,101966.55
2019-01-19T09:16:13.299Z,101962.16
2019-01-19T09:18:42.201Z,101969.81
2019-01-19T09:21:11.166Z,101968.52
2019-01-19T09:23:46.491Z,101971.03
2019-01-19T09:26:15.415Z,101975.16
2019-01-19T09:28:44.390Z,101969.49
2019-01-19T09:31:13.290Z,101969.73
2019-01-19T09:33:42.397Z,101968.55
2019-01-19T09:36:11.482Z,101967.74
2019-01-19T09:38:40.369Z,101971.75
2019-01-19T09:41:09.259Z,101965.71
2019-01-19T09:43:38.207Z,101970.10
2019-01-19T09:46:07.206Z,101974.81
2019-01-19T09:48:36.159Z,101980.13
2019-01-19T09:51:05.311Z,101980.47
2019-01-19T09:56:02.238Z,101975.63
2019-01-19T09:58:31.877Z,101971.85
2019-01-19T10:01:00.848Z,101976.95
2019-01-19T10:03:29.770Z,101975.74
2019-01-19T10:05:58.716Z,101978.95
2019-01-19T10:08:27.689Z,101976.72
2019-01-19T10:10:56.927Z,101977.06
2019-01-19T10:13:25.854Z,101974.45
2019-01-19T10:15:54.783Z,101982.58
2019-01-19T10:18:24.083Z,101978.88
2019-01-19T10:20:52.989Z,101974.57
2019-01-19T10:23:21.947Z,101974.06
2019-01-19T10:25:50.915Z,101976.55
2019-01-19T10:28:19.837Z,101975.55
2019-01-19T10:30:48.789Z,101967.83
2019-01-19T10:33:19.299Z,101964.38
2019-01-19T10:35:48.291Z,101965.58
2019-01-19T10:38:17.175Z,101966.43
2019-01-19T10:40:46.168Z,101958.19
2019-01-19T10:43:15.109Z,101961.10
2019-01-19T10:45:44.345Z,101964.25
2019-01-19T10:48:13.319Z,101956.67
2019-01-19T10:50:42.255Z,101962.31
2019-01-19T10:53:11.268Z,101966.48
2019-01-19T10:55:40.245Z,101961.76
2019-01-19T10:58:09.256Z,101958.12
2019-01-19T11:00:38.297Z,101958.73
2019-01-19T11:03:07.261Z,101963.73
2019-01-19T11:05:36.275Z,101960.52
2019-01-19T11:08:07.344Z,101959.02
2019-01-19T11:10:36.330Z,101954.97
2019-01-19T11:13:05.322Z,101954.55
2019-01-19T11:15:34.314Z,101951.80
2019-01-19T11:18:09.436Z,101945.86
2019-01-19T11:20:38.329Z,101942.91
2019-01-19T11:23:07.384Z,101939.13
2019-01-19T11:25:36.371Z,101936.03
2019-01-19T11:28:05.546Z,101929.18
2019-01-19T11:30:34.607Z,101926.41
2019-01-19T11:33:03.603Z,101927.67
2019-01-19T11:35:32.587Z,101923.89
2019-01-19T11:38:03.224Z,101926.42
2019-01-19T11:40:37.154Z,101912.58
2019-01-19T11:43:07.474Z,101909.81
2019-01-19T11:45:36.604Z,101912.48
2019-01-19T11:48:06.311Z,101913.94
2019-01-19T11:50:35.321Z,101913.19
2019-01-19T11:53:04.425Z,101898.91
2019-01-19T11:55:33.428Z,101902.88
2019-01-19T11:58:04.019Z,101901.77
2019-01-19T12:00:34.657Z,101899.06
2019-01-19T12:03:03.753Z,101891.86
2019-01-19T12:05:32.635Z,101902.61
2019-01-19T12:08:02.680Z,101890.39
2019-01-19T12:10:31.714Z,101888.89
2019-01-19T12:13:00.721Z,101883.27
2019-01-19T12:15:29.768Z,101889.55
2019-01-19T12:17:58.804Z,101882.05
2019-01-19T12:20:39.198Z,101883.44
2019-01-19T12:23:08.715Z,101879.86
2019-01-19T12:25:38.334Z,101878.22
2019-01-19T12:28:07.422Z,101883.66
2019-01-19T12:30:36.539Z,101872.58
2019-01-19T12:33:05.972Z,101882.25
2019-01-19T12:35:35.021Z,101875.33
2019-01-19T12:38:04.243Z,101864.95
2019-01-19T12:40:33.370Z,101866.48
2019-01-19T12:43:05.591Z,101864.31
2019-01-19T12:45:40.632Z,101859.52
2019-01-19T12:48:09.722Z,101863.78
2019-01-19T12:50:39.419Z,101860.89
2019-01-19T12:53:08.513Z,101854.38
2019-01-19T12:55:38.156Z,101856.31
2019-01-19T12:58:08.824Z,101855.53
2019-01-19T13:00:38.692Z,101857.63
2019-01-19T13:03:08.278Z,101856.33
2019-01-19T13:05:40.620Z,101851.59
2019-01-19T13:08:11.564Z,101851.69
2019-01-19T13:10:54.093Z,101848.33
2019-01-19T13:13:27.699Z,101847.16
2019-01-19T13:16:23.832Z,101843.34
2019-01-19T13:19:35.025Z,101840.88
2019-01-19T13:22:48.164Z,101841.83
2019-01-19T13:26:04.097Z,101835.50
2019-01-19T13:29:08.432Z,101830.72
2019-01-19T13:32:04.771Z,101829.23
2019-01-19T13:35:35.652Z,101824.30
2019-01-19T13:38:47.520Z,101827.39
2019-01-19T13:42:05.549Z,101827.30
2019-01-19T13:45:00.289Z,101822.72
2019-01-19T13:48:06.323Z,101816.77
2019-01-19T13:51:02.241Z,101820.40
2019-01-19T13:53:52.300Z,101823.97
2019-01-19T13:57:17.693Z,101816.82
2019-01-19T14:00:26.375Z,101815.22
2019-01-19T14:03:29.120Z,101811.91
2019-01-19T14:06:20.583Z,101812.06
2019-01-19T14:09:45.544Z,101808.16
2019-01-19T14:12:59.699Z,101810.14
2019-01-19T14:16:08.826Z,101812.48
2019-01-19T14:19:13.984Z,101814.95
2019-01-19T14:22:27.244Z,101806.24
2019-01-19T14:25:40.702Z,101810.63
2019-01-19T14:28:41.432Z,101805.69
2019-01-19T14:31:52.885Z,101806.92
2019-01-19T14:34:56.445Z,101803.49
2019-01-19T14:37:57.670Z,101795.33
2019-01-19T14:41:13.388Z,101800.83
2019-01-19T14:44:25.852Z,101796.14
2019-01-19T14:47:44.882Z,101798.06
2019-01-19T14:50:38.754Z,101792.13
2019-01-19T14:53:32.205Z,101794.44
2019-01-19T14:56:46.810Z,101793.80
2019-01-19T14:59:46.762Z,101800.30
2019-01-19T15:03:00.131Z,101798.11
2019-01-19T15:06:00.477Z,101795.53
2019-01-19T15:09:28.717Z,101794.78
2019-01-19T15:12:22.582Z,101791.49
2019-01-19T15:15:00.832Z,101795.71
2019-01-19T15:18:05.556Z,101794.41
2019-01-19T15:20:44.926Z,101790.13
2019-01-19T15:23:38.459Z,101786.77
2019-01-19T15:26:33.530Z,101789.55
2019-01-19T15:29:24.296Z,101792.84
2019-01-19T15:32:24.151Z,101788.41
2019-01-19T15:35:28.490Z,101782.56
2019-01-19T15:38:36.376Z,101789.03
2019-01-19T15:41:50.443Z,101788.83
2019-01-19T15:44:57.781Z,101788.55
2019-01-19T15:48:02.569Z,101789.09
2019-01-19T15:51:04.196Z,101792.66
2019-01-19T15:54:09.524Z,101791.42
2019-01-19T15:56:55.330Z,101785.74
2019-01-19T16:00:14.212Z,101786.50
2019-01-19T16:03:20.543Z,101786.23
2019-01-19T16:06:33.517Z,101784.58
2019-01-19T16:09:26.456Z,101785.47
2019-01-19T16:12:35.733Z,101773.58
2019-01-19T16:15:42.186Z,101780.14
2019-01-19T16:18:56.433Z,101774.30
2019-01-19T16:21:48.080Z,101774.71
2019-01-19T16:24:23.426Z,101772.05
2019-01-19T16:27:29.268Z,101767.73
2019-01-19T16:30:30.755Z,101769.44
2019-01-19T16:33:21.614Z,101772.11
2019-01-19T16:35:57.935Z,101778.41
2019-01-19T16:39:26.121Z,101779.44
2019-01-19T16:42:12.548Z,101771.97
2019-01-19T16:45:20.958Z,101784.75
2019-01-19T16:48:25.752Z,101779.47
2019-01-19T16:51:30.650Z,101783.78
2019-01-19T16:54:25.313Z,101786.65
2019-01-19T16:57:22.279Z,101788.16
2019-01-19T17:00:27.825Z,101783.92
2019-01-19T17:03:38.652Z,101781.11
2019-01-19T17:06:23.615Z,101779.68
2019-01-19T17:09:33.102Z,101781.30
2019-01-19T17:12:53.788Z,101776.13
2019-01-19T17:15:41.471Z,101779.62
2019-01-19T17:18:34.868Z,101784.69
2019-01-19T17:21:55.969Z,101780.42
2019-01-19T17:25:13.835Z,101776.87
2019-01-19T17:28:24.122Z,101772.70
2019-01-19T17:31:36.071Z,101777.21
2019-01-19T17:34:29.646Z,101771.59
2019-01-19T17:37:20.093Z,101774.94
2019-01-19T17:40:29.430Z,101780.48
2019-01-19T17:43:33.503Z,101776.17
2019-01-19T17:46:52.608Z,101770.36
2019-01-19T17:49:52.828Z,101774.00
2019-01-19T17:53:11.857Z,101774.05
2019-01-19T17:56:22.956Z,101774.11
2019-01-19T17:59:14.160Z,101777.95
2019-01-19T18:02:22.921Z,101776.45
2019-01-19T18:05:13.508Z,101775.78
2019-01-19T18:08:32.473Z,101769.72
2019-01-19T18:11:50.263Z,101772.70
2019-01-19T18:14:55.757Z,101775.00
2019-01-19T18:18:09.854Z,101781.03
2019-01-19T18:21:16.569Z,101775.12
2019-01-19T18:24:33.200Z,101773.20
2019-01-19T18:27:32.002Z,101776.16
2019-01-19T18:30:40.864Z,101778.63
2019-01-19T18:33:36.373Z,101777.72
2019-01-19T18:36:30.006Z,101785.81
2019-01-19T18:39:24.896Z,101779.36
2019-01-19T18:42:41.386Z,101776.77
2019-01-19T18:45:57.897Z,101779.88
2019-01-19T18:49:06.886Z,101779.97
2019-01-19T18:52:21.989Z,101780.41
2019-01-19T18:55:34.849Z,101776.23
2019-01-19T18:58:34.294Z,101772.39
2019-01-19T19:01:31.292Z,101780.31
2019-01-19T19:04:24.979Z,101772.78
2019-01-19T19:07:27.925Z,101766.08
2019-01-19T19:10:18.861Z,101770.17
2019-01-19T19:13:13.493Z,101769.07
2019-01-19T19:16:01.389Z,101771.74
2019-01-19T19:19:05.871Z,101773.01
2019-01-19T19:22:07.041Z,101768.55
2019-01-19T19:25:13.450Z,101766.77
2019-01-19T19:27:57.013Z,101772.92
2019-01-19T19:31:04.795Z,101774.74
2019-01-19T19:33:58.630Z,101773.44
2019-01-19T19:36:50.849Z,101776.13
2019-01-19T19:39:37.023Z,101769.33
2019-01-19T19:42:35.263Z,101770.41
2019-01-19T19:45:35.878Z,101767.60
2019-01-19T19:48:14.215Z,101767.95
2019-01-19T19:51:25.936Z,101770.37
2019-01-19T19:53:54.907Z,101765.61
2019-01-19T19:56:22.391Z,101773.92
2019-01-19T19:58:51.394Z,101764.95
2019-01-19T20:01:20.451Z,101765.08
2019-01-19T20:03:49.509Z,101767.68
2019-01-19T20:06:18.456Z,101767.21
2019-01-19T20:08:47.553Z,101764.30
2019-01-19T20:11:17.550Z,101766.55
2019-01-19T20:13:46.644Z,101763.92
2019-01-19T20:16:15.640Z,101758.09
2019-01-19T20:18:44.617Z,101756.45
2019-01-19T20:21:13.653Z,101762.97
2019-01-19T20:23:42.608Z,101767.19
2019-01-19T20:26:11.679Z,101765.48
2019-01-19T20:28:40.731Z,101767.31
2019-01-19T20:31:09.756Z,101768.99
2019-01-19T20:33:38.767Z,101772.91
2019-01-19T20:36:07.698Z,101772.09
2019-01-19T20:38:36.635Z,101772.69
2019-01-19T20:41:05.651Z,101772.31
2019-01-19T20:43:34.696Z,101766.52
2019-01-19T20:46:03.683Z,101768.80
2019-01-19T20:48:32.727Z,101768.08
2019-01-19T20:51:01.683Z,101769.69
2019-01-19T20:53:30.711Z,101765.66
2019-01-19T20:55:59.632Z,101762.43
2019-01-19T20:58:28.621Z,101771.19
2019-01-19T21:00:57.682Z,101763.31
2019-01-19T21:03:26.611Z,101765.20
2019-01-19T21:05:55.646Z,101767.20
2019-01-19T21:08:24.607Z,101770.71
2019-01-19T21:10:53.612Z,101774.66
2019-01-19T21:13:22.611Z,101778.56
2019-01-19T21:15:51.593Z,101774.41
2019-01-19T21:18:20.604Z,101772.77
2019-01-19T21:20:49.552Z,101767.56
2019-01-19T21:23:18.514Z,101768.31
2019-01-19T21:25:47.588Z,101771.13
2019-01-19T21:28:16.609Z,101763.83
2019-01-19T21:30:45.692Z,101780.45
2019-01-19T21:33:14.871Z,101778.00
2019-01-19T21:35:43.914Z,101774.58
2019-01-19T21:38:12.963Z,101770.67
2019-01-19T21:40:41.880Z,101775.41
2019-01-19T21:43:10.720Z,101775.63
2019-01-19T21:45:39.819Z,101777.28
2019-01-19T21:48:08.808Z,101775.27
2019-01-19T21:50:37.893Z,101777.05
2019-01-19T21:53:07.124Z,101774.94
2019-01-19T21:55:36.084Z,101768.57
2019-01-19T21:58:05.408Z,101766.56
2019-01-19T22:00:34.384Z,101767.96
2019-01-19T22:03:03.440Z,101776.34
2019-01-19T22:05:32.666Z,101776.45
2019-01-19T22:08:01.676Z,101774.68
2019-01-19T22:10:30.696Z,101775.98
2019-01-19T22:12:59.810Z,101775.39
2019-01-19T22:15:28.761Z,101775.87
2019-01-19T22:17:58.155Z,101778.91
2019-01-19T22:20:27.158Z,101781.28
2019-01-19T22:22:56.129Z,101787.06
2019-01-19T22:25:25.118Z,101787.64
2019-01-19T22:27:54.137Z,101789.30
2019-01-19T22:30:24.664Z,101780.93
2019-01-19T22:32:55.462Z,101785.42
2019-01-19T22:35:27.119Z,101781.03
2019-01-19T22:37:56.056Z,101780.00
2019-01-19T22:40:24.965Z,101783.89
2019-01-19T22:42:59.163Z,101784.71
2019-01-19T22:45:28.072Z,101785.77
2019-01-19T22:47:56.964Z,101778.34
2019-01-19T22:50:25.967Z,101784.71
2019-01-19T22:52:54.971Z,101785.88
2019-01-19T22:55:23.919Z,101777.17
2019-01-19T22:57:52.962Z,101776.58
2019-01-19T23:01:17.570Z,101776.45
2019-01-19T23:03:46.604Z,101771.74
2019-01-19T23:06:15.658Z,101776.33
2019-01-19T23:08:44.692Z,101779.98
2019-01-19T23:11:13.754Z,101767.87
2019-01-19T23:13:42.877Z,101771.02
2019-01-19T23:16:11.942Z,101770.19
2019-01-19T23:18:40.878Z,101776.22
2019-01-19T23:21:09.827Z,101770.06
2019-01-19T23:23:38.799Z,101766.68
2019-01-19T23:26:07.893Z,101769.25
2019-01-19T23:28:36.898Z,101769.03
2019-01-19T23:31:05.871Z,101771.39
2019-01-19T23:33:34.928Z,101769.03
2019-01-19T23:36:03.934Z,101763.84
2019-01-19T23:38:32.911Z,101764.80
2019-01-19T23:41:08.688Z,101768.92
2019-01-19T23:43:32.598Z,101764.80
2019-01-19T23:46:01.576Z,101760.19
2019-01-19T23:48:30.607Z,101758.42
2019-01-19T23:50:59.562Z,101767.87
2019-01-19T23:53:28.589Z,101762.54
2019-01-19T23:55:57.555Z,101763.73
2019-01-19T23:58:26.483Z,101765.50
